Pur-navolok — UBNE8 — position and weather

sailwx.info

Track history (hours):
 
Tides and Currents Weather Stations Pressure Air Temp Water Temp Dewpoint Dewpoint Depression Visibility Wind Speed Wind Dir Waves Ship Positions

Pur-navolok

Last reported at 2018-Feb-20 19:23 UTC. Time now 2018-Feb-21 09:43 UTC.
Position N 45°29' E 036°47'.

Length 87 m; draft 2 m.

Type: Cargo ship. MMSI: 273314480.

Date/timePositionNaut miles runAvg speedWind from/ knotsBaromVisibWave heightAir tempDewpointWater temp
2018-Feb-20 19:23N 45°29' E 036°47'0 0.0
2018-Feb-20 13:34N 45°29' E 036°47'0 0.1
2018-Feb-20 13:06N 45°29' E 036°48'1 4.9
2018-Feb-20 12:59N 45°29' E 036°47'1 1.5
2018-Feb-20 12:16N 45°28' E 036°46'1 4.7
2018-Feb-20 12:00N 45°27' E 036°45'3 6.3
2018-Feb-20 11:29N 45°25' E 036°41'3 6.1
2018-Feb-20 10:59N 45°22' E 036°40'3 5.5
2018-Feb-20 10:30N 45°20' E 036°36'3 5.9
2018-Feb-20 10:00N 45°19' E 036°33'3 5.7
2018-Feb-20 09:24N 45°17' E 036°29'2 6.2
2018-Feb-20 09:00N 45°15' E 036°29'2 4.1
2018-Feb-20 08:29N 45°13' E 036°29'2 3.0
2018-Feb-20 07:59N 45°11' E 036°30'2 4.7
2018-Feb-20 07:27N 45°10' E 036°33'9 0.8
2018-Feb-19 19:29N 45°18' E 036°29'3 6.5
2018-Feb-19 19:00N 45°19' E 036°33'3 6.5
2018-Feb-19 18:29N 45°21' E 036°38'3 5.3
2018-Feb-19 18:00N 45°23' E 036°40'3 5.7
2018-Feb-19 17:30N 45°26' E 036°41'3 5.6
2018-Feb-19 17:00N 45°28' E 036°40'0 0.4
2018-Feb-19 16:28N 45°28' E 036°39'0 0.0
2018-Feb-19 15:34N 45°28' E 036°39'0 0.0
2018-Feb-19 15:22N 45°28' E 036°39'0 0.0
2018-Feb-19 14:52N 45°28' E 036°39'0 0.0
2018-Feb-19 14:19N 45°28' E 036°39'0 0.0
2018-Feb-19 13:58N 45°28' E 036°39'0 0.0
2018-Feb-19 13:28N 45°28' E 036°39'0 0.0
2018-Feb-19 12:58N 45°28' E 036°39'0 0.0
2018-Feb-19 12:28N 45°28' E 036°39'0 0.0
2018-Feb-19 11:58N 45°28' E 036°39'0 0.0
2018-Feb-19 11:28N 45°28' E 036°39'0 0.0
2018-Feb-19 10:58N 45°28' E 036°39'1 3.1
2018-Feb-19 10:30N 45°29' E 036°41'3 6.5
2018-Feb-19 10:00N 45°32' E 036°43'4 7.1
2018-Feb-19 09:30N 45°35' E 036°45'  
Track history (hours):
 
Tides and Currents Weather Stations Pressure Air Temp Water Temp Dewpoint Dewpoint Depression Visibility Wind Speed Wind Dir Waves Ship Positions

Pur-navolok

Last reported at 2018-Feb-20 19:23 UTC. Time now 2018-Feb-21 09:43 UTC.
Position N 45°29' E 036°47'.

Length 87 m; draft 2 m.

Type: Cargo ship. MMSI: 273314480.

Date/timePositionNaut miles runAvg speedWind from/ knotsBaromVisibWave heightAir tempDewpointWater temp
2018-Feb-20 19:23N 45°29' E 036°47'0 0.0
2018-Feb-20 13:34N 45°29' E 036°47'0 0.1
2018-Feb-20 13:06N 45°29' E 036°48'1 4.9
2018-Feb-20 12:59N 45°29' E 036°47'1 1.5
2018-Feb-20 12:16N 45°28' E 036°46'1 4.7
2018-Feb-20 12:00N 45°27' E 036°45'3 6.3
2018-Feb-20 11:29N 45°25' E 036°41'3 6.1
2018-Feb-20 10:59N 45°22' E 036°40'3 5.5
2018-Feb-20 10:30N 45°20' E 036°36'3 5.9
2018-Feb-20 10:00N 45°19' E 036°33'3 5.7
2018-Feb-20 09:24N 45°17' E 036°29'2 6.2
2018-Feb-20 09:00N 45°15' E 036°29'2 4.1
2018-Feb-20 08:29N 45°13' E 036°29'2 3.0
2018-Feb-20 07:59N 45°11' E 036°30'2 4.7
2018-Feb-20 07:27N 45°10' E 036°33'9 0.8
2018-Feb-19 19:29N 45°18' E 036°29'3 6.5
2018-Feb-19 19:00N 45°19' E 036°33'3 6.5
2018-Feb-19 18:29N 45°21' E 036°38'3 5.3
2018-Feb-19 18:00N 45°23' E 036°40'3 5.7
2018-Feb-19 17:30N 45°26' E 036°41'3 5.6
2018-Feb-19 17:00N 45°28' E 036°40'0 0.4
2018-Feb-19 16:28N 45°28' E 036°39'0 0.0
2018-Feb-19 15:34N 45°28' E 036°39'0 0.0
2018-Feb-19 15:22N 45°28' E 036°39'0 0.0
2018-Feb-19 14:52N 45°28' E 036°39'0 0.0
2018-Feb-19 14:19N 45°28' E 036°39'0 0.0
2018-Feb-19 13:58N 45°28' E 036°39'0 0.0
2018-Feb-19 13:28N 45°28' E 036°39'0 0.0
2018-Feb-19 12:58N 45°28' E 036°39'0 0.0
2018-Feb-19 12:28N 45°28' E 036°39'0 0.0
2018-Feb-19 11:58N 45°28' E 036°39'0 0.0
2018-Feb-19 11:28N 45°28' E 036°39'0 0.0
2018-Feb-19 10:58N 45°28' E 036°39'1 3.1
2018-Feb-19 10:30N 45°29' E 036°41'3 6.5
2018-Feb-19 10:00N 45°32' E 036°43'4 7.1
2018-Feb-19 09:30N 45°35' E 036°45'  

Dump ship's entire track history